sensor_id;sensor_type;location;lat;lon;timestamp;temperature;humidity
17296;DHT22;8766;51.480;6.872;2023-03-21T00:02:25;11.90;66.70
17296;DHT22;8766;51.480;6.872;2023-03-21T00:04:52;11.90;66.80
17296;DHT22;8766;51.480;6.872;2023-03-21T00:07:19;11.90;66.70
17296;DHT22;8766;51.480;6.872;2023-03-21T00:09:46;11.90;66.80
17296;DHT22;8766;51.480;6.872;2023-03-21T00:12:12;11.90;66.80
17296;DHT22;8766;51.480;6.872;2023-03-21T00:14:43;11.90;66.80
17296;DHT22;8766;51.480;6.872;2023-03-21T00:17:10;11.90;66.80
17296;DHT22;8766;51.480;6.872;2023-03-21T00:19:37;11.90;66.80
17296;DHT22;8766;51.480;6.872;2023-03-21T00:22:06;11.90;66.90
17296;DHT22;8766;51.480;6.872;2023-03-21T00:24:33;11.90;66.90
17296;DHT22;8766;51.480;6.872;2023-03-21T00:27:00;11.90;66.90
17296;DHT22;8766;51.480;6.872;2023-03-21T00:29:27;11.90;66.90
17296;DHT22;8766;51.480;6.872;2023-03-21T00:31:55;11.90;66.90
17296;DHT22;8766;51.480;6.872;2023-03-21T00:34:22;11.80;66.90
17296;DHT22;8766;51.480;6.872;2023-03-21T00:36:49;11.80;66.90
17296;DHT22;8766;51.480;6.872;2023-03-21T00:39:16;11.80;66.90
17296;DHT22;8766;51.480;6.872;2023-03-21T00:41:43;11.80;66.90
17296;DHT22;8766;51.480;6.872;2023-03-21T00:44:12;11.80;66.90
17296;DHT22;8766;51.480;6.872;2023-03-21T00:46:40;11.80;66.90
17296;DHT22;8766;51.480;6.872;2023-03-21T00:49:09;11.80;66.90
17296;DHT22;8766;51.480;6.872;2023-03-21T00:51:36;11.80;66.90
17296;DHT22;8766;51.480;6.872;2023-03-21T00:54:03;11.80;66.90
17296;DHT22;8766;51.480;6.872;2023-03-21T00:56:30;11.80;66.90
17296;DHT22;8766;51.480;6.872;2023-03-21T00:58:57;11.80;66.90
17296;DHT22;8766;51.480;6.872;2023-03-21T01:01:24;11.80;66.90
17296;DHT22;8766;51.480;6.872;2023-03-21T01:03:56;11.80;66.90
17296;DHT22;8766;51.480;6.872;2023-03-21T01:06:29;11.80;66.90
17296;DHT22;8766;51.480;6.872;2023-03-21T01:08:56;11.80;66.90
17296;DHT22;8766;51.480;6.872;2023-03-21T01:11:25;11.80;66.90
17296;DHT22;8766;51.480;6.872;2023-03-21T01:13:52;11.80;66.90
17296;DHT22;8766;51.480;6.872;2023-03-21T01:16:20;11.80;66.90
17296;DHT22;8766;51.480;6.872;2023-03-21T01:18:47;11.80;67.00
17296;DHT22;8766;51.480;6.872;2023-03-21T01:21:14;11.80;66.90
17296;DHT22;8766;51.480;6.872;2023-03-21T01:23:43;11.80;66.90
17296;DHT22;8766;51.480;6.872;2023-03-21T01:26:10;11.80;67.00
17296;DHT22;8766;51.480;6.872;2023-03-21T01:28:38;11.80;67.00
17296;DHT22;8766;51.480;6.872;2023-03-21T01:31:06;11.80;67.00
17296;DHT22;8766;51.480;6.872;2023-03-21T01:33:34;11.80;67.00
17296;DHT22;8766;51.480;6.872;2023-03-21T01:36:01;11.80;67.00
17296;DHT22;8766;51.480;6.872;2023-03-21T01:38:29;11.80;67.00
17296;DHT22;8766;51.480;6.872;2023-03-21T01:40:59;11.80;67.00
17296;DHT22;8766;51.480;6.872;2023-03-21T01:43:28;11.80;67.00
17296;DHT22;8766;51.480;6.872;2023-03-21T01:46:21;11.80;67.00
17296;DHT22;8766;51.480;6.872;2023-03-21T01:48:54;11.80;67.00
17296;DHT22;8766;51.480;6.872;2023-03-21T01:51:24;11.80;66.90
17296;DHT22;8766;51.480;6.872;2023-03-21T01:53:52;11.80;67.00
17296;DHT22;8766;51.480;6.872;2023-03-21T01:56:24;11.80;67.00
17296;DHT22;8766;51.480;6.872;2023-03-21T01:58:55;11.80;67.00
17296;DHT22;8766;51.480;6.872;2023-03-21T02:01:24;11.80;67.00
17296;DHT22;8766;51.480;6.872;2023-03-21T02:03:51;11.80;66.90
17296;DHT22;8766;51.480;6.872;2023-03-21T02:06:27;11.80;66.90
17296;DHT22;8766;51.480;6.872;2023-03-21T02:08:58;11.80;67.00
17296;DHT22;8766;51.480;6.872;2023-03-21T02:11:28;11.80;66.90
17296;DHT22;8766;51.480;6.872;2023-03-21T02:13:56;11.80;67.00
17296;DHT22;8766;51.480;6.872;2023-03-21T02:16:28;11.80;66.90
17296;DHT22;8766;51.480;6.872;2023-03-21T02:19:17;11.80;67.00
17296;DHT22;8766;51.480;6.872;2023-03-21T02:22:09;11.80;67.00
17296;DHT22;8766;51.480;6.872;2023-03-21T02:25:05;11.80;67.00
17296;DHT22;8766;51.480;6.872;2023-03-21T02:27:39;11.80;67.00
17296;DHT22;8766;51.480;6.872;2023-03-21T02:30:32;11.80;67.10
17296;DHT22;8766;51.480;6.872;2023-03-21T02:36:24;11.70;67.10
17296;DHT22;8766;51.480;6.872;2023-03-21T02:38:57;11.70;67.00
17296;DHT22;8766;51.480;6.872;2023-03-21T02:41:34;11.70;67.00
17296;DHT22;8766;51.480;6.872;2023-03-21T02:44:06;11.70;67.00
17296;DHT22;8766;51.480;6.872;2023-03-21T02:46:39;11.70;67.00
17296;DHT22;8766;51.480;6.872;2023-03-21T02:49:11;11.80;67.10
17296;DHT22;8766;51.480;6.872;2023-03-21T02:51:42;11.80;67.10
17296;DHT22;8766;51.480;6.872;2023-03-21T02:54:14;11.80;67.10
17296;DHT22;8766;51.480;6.872;2023-03-21T02:56:43;11.70;67.10
17296;DHT22;8766;51.480;6.872;2023-03-21T02:59:12;11.70;67.10
17296;DHT22;8766;51.480;6.872;2023-03-21T03:01:40;11.70;67.10
17296;DHT22;8766;51.480;6.872;2023-03-21T03:04:20;11.70;67.20
17296;DHT22;8766;51.480;6.872;2023-03-21T03:07:02;11.70;67.30
17296;DHT22;8766;51.480;6.872;2023-03-21T03:09:42;11.70;67.30
17296;DHT22;8766;51.480;6.872;2023-03-21T03:12:20;11.70;67.30
17296;DHT22;8766;51.480;6.872;2023-03-21T03:14:57;11.70;67.40
17296;DHT22;8766;51.480;6.872;2023-03-21T03:17:38;11.70;67.40
17296;DHT22;8766;51.480;6.872;2023-03-21T03:20:26;11.60;67.30
17296;DHT22;8766;51.480;6.872;2023-03-21T03:23:02;11.70;67.40
17296;DHT22;8766;51.480;6.872;2023-03-21T03:25:38;11.70;67.40
17296;DHT22;8766;51.480;6.872;2023-03-21T03:28:07;11.60;67.30
17296;DHT22;8766;51.480;6.872;2023-03-21T03:30:36;11.60;67.30
17296;DHT22;8766;51.480;6.872;2023-03-21T03:33:05;11.60;67.30
17296;DHT22;8766;51.480;6.872;2023-03-21T03:35:33;11.60;67.40
17296;DHT22;8766;51.480;6.872;2023-03-21T03:38:02;11.60;67.40
17296;DHT22;8766;51.480;6.872;2023-03-21T03:40:36;11.60;67.50
17296;DHT22;8766;51.480;6.872;2023-03-21T03:43:09;11.60;67.60
17296;DHT22;8766;51.480;6.872;2023-03-21T03:45:42;11.50;67.60
17296;DHT22;8766;51.480;6.872;2023-03-21T03:48:14;11.50;67.70
17296;DHT22;8766;51.480;6.872;2023-03-21T03:50:46;11.50;67.70
17296;DHT22;8766;51.480;6.872;2023-03-21T03:53:18;11.50;67.80
17296;DHT22;8766;51.480;6.872;2023-03-21T03:55:49;11.50;67.80
17296;DHT22;8766;51.480;6.872;2023-03-21T03:58:17;11.50;67.80
17296;DHT22;8766;51.480;6.872;2023-03-21T04:00:45;11.50;67.80
17296;DHT22;8766;51.480;6.872;2023-03-21T04:03:12;11.50;67.80
17296;DHT22;8766;51.480;6.872;2023-03-21T04:05:39;11.50;67.70
17296;DHT22;8766;51.480;6.872;2023-03-21T04:08:06;11.50;67.70
17296;DHT22;8766;51.480;6.872;2023-03-21T04:10:34;11.50;67.70
17296;DHT22;8766;51.480;6.872;2023-03-21T04:13:02;11.50;67.70
17296;DHT22;8766;51.480;6.872;2023-03-21T04:15:29;11.50;67.60
17296;DHT22;8766;51.480;6.872;2023-03-21T04:17:56;11.60;67.60
17296;DHT22;8766;51.480;6.872;2023-03-21T04:20:23;11.60;67.60
17296;DHT22;8766;51.480;6.872;2023-03-21T04:22:50;11.60;67.60
17296;DHT22;8766;51.480;6.872;2023-03-21T04:25:18;11.60;67.60
17296;DHT22;8766;51.480;6.872;2023-03-21T04:27:45;11.60;67.60
17296;DHT22;8766;51.480;6.872;2023-03-21T04:30:15;11.60;67.60
17296;DHT22;8766;51.480;6.872;2023-03-21T04:32:42;11.60;67.60
17296;DHT22;8766;51.480;6.872;2023-03-21T04:35:09;11.60;67.60
17296;DHT22;8766;51.480;6.872;2023-03-21T04:37:36;11.60;67.60
17296;DHT22;8766;51.480;6.872;2023-03-21T04:40:06;11.60;67.60
17296;DHT22;8766;51.480;6.872;2023-03-21T04:42:33;11.60;67.60
17296;DHT22;8766;51.480;6.872;2023-03-21T04:45:00;11.60;67.60
17296;DHT22;8766;51.480;6.872;2023-03-21T04:47:29;11.60;67.60
17296;DHT22;8766;51.480;6.872;2023-03-21T04:49:56;11.60;67.60
17296;DHT22;8766;51.480;6.872;2023-03-21T04:52:23;11.60;67.60
17296;DHT22;8766;51.480;6.872;2023-03-21T04:54:50;11.60;67.60
17296;DHT22;8766;51.480;6.872;2023-03-21T04:57:17;11.60;67.60
17296;DHT22;8766;51.480;6.872;2023-03-21T04:59:44;11.60;67.60
17296;DHT22;8766;51.480;6.872;2023-03-21T05:02:11;11.60;67.60
17296;DHT22;8766;51.480;6.872;2023-03-21T05:04:40;11.60;67.60
17296;DHT22;8766;51.480;6.872;2023-03-21T05:07:07;11.60;67.70
17296;DHT22;8766;51.480;6.872;2023-03-21T05:09:34;11.60;67.70
17296;DHT22;8766;51.480;6.872;2023-03-21T05:12:01;11.60;67.70
17296;DHT22;8766;51.480;6.872;2023-03-21T05:14:28;11.60;67.70
17296;DHT22;8766;51.480;6.872;2023-03-21T05:16:55;11.60;67.80
17296;DHT22;8766;51.480;6.872;2023-03-21T05:19:24;11.50;67.80
17296;DHT22;8766;51.480;6.872;2023-03-21T05:22:02;11.50;67.80
17296;DHT22;8766;51.480;6.872;2023-03-21T05:24:30;11.50;67.80
17296;DHT22;8766;51.480;6.872;2023-03-21T05:26:58;11.50;67.80
17296;DHT22;8766;51.480;6.872;2023-03-21T05:29:27;11.50;67.80
17296;DHT22;8766;51.480;6.872;2023-03-21T05:31:55;11.50;67.80
17296;DHT22;8766;51.480;6.872;2023-03-21T05:34:22;11.50;67.80
17296;DHT22;8766;51.480;6.872;2023-03-21T05:36:49;11.50;67.90
17296;DHT22;8766;51.480;6.872;2023-03-21T05:39:17;11.50;67.90
17296;DHT22;8766;51.480;6.872;2023-03-21T05:41:44;11.50;67.90
17296;DHT22;8766;51.480;6.872;2023-03-21T05:44:11;11.50;67.90
17296;DHT22;8766;51.480;6.872;2023-03-21T05:46:38;11.50;68.00
17296;DHT22;8766;51.480;6.872;2023-03-21T05:49:05;11.50;68.00
17296;DHT22;8766;51.480;6.872;2023-03-21T05:51:32;11.50;68.00
17296;DHT22;8766;51.480;6.872;2023-03-21T05:53:59;11.50;68.00
17296;DHT22;8766;51.480;6.872;2023-03-21T05:56:27;11.50;68.00
17296;DHT22;8766;51.480;6.872;2023-03-21T05:58:54;11.50;68.10
17296;DHT22;8766;51.480;6.872;2023-03-21T06:01:20;11.50;68.10
17296;DHT22;8766;51.480;6.872;2023-03-21T06:03:47;11.50;68.00
17296;DHT22;8766;51.480;6.872;2023-03-21T06:06:14;11.50;68.00
17296;DHT22;8766;51.480;6.872;2023-03-21T06:08:41;11.50;68.00
17296;DHT22;8766;51.480;6.872;2023-03-21T06:11:15;11.50;68.00
17296;DHT22;8766;51.480;6.872;2023-03-21T06:13:46;11.50;68.00
17296;DHT22;8766;51.480;6.872;2023-03-21T06:16:13;11.50;68.00
17296;DHT22;8766;51.480;6.872;2023-03-21T06:18:40;11.50;68.00
17296;DHT22;8766;51.480;6.872;2023-03-21T06:21:07;11.50;68.00
17296;DHT22;8766;51.480;6.872;2023-03-21T06:23:34;11.50;68.00
17296;DHT22;8766;51.480;6.872;2023-03-21T06:26:02;11.50;68.60
17296;DHT22;8766;51.480;6.872;2023-03-21T06:28:29;11.50;68.00
17296;DHT22;8766;51.480;6.872;2023-03-21T06:30:57;11.50;68.00
17296;DHT22;8766;51.480;6.872;2023-03-21T06:33:25;11.60;68.00
17296;DHT22;8766;51.480;6.872;2023-03-21T06:35:52;11.50;67.90
17296;DHT22;8766;51.480;6.872;2023-03-21T06:38:19;11.50;68.00
17296;DHT22;8766;51.480;6.872;2023-03-21T06:40:47;11.60;68.00
17296;DHT22;8766;51.480;6.872;2023-03-21T06:43:14;11.60;68.00
17296;DHT22;8766;51.480;6.872;2023-03-21T06:45:53;11.60;68.00
17296;DHT22;8766;51.480;6.872;2023-03-21T06:48:29;11.60;67.90
17296;DHT22;8766;51.480;6.872;2023-03-21T06:50:57;11.60;67.90
17296;DHT22;8766;51.480;6.872;2023-03-21T06:53:24;11.60;67.90
17296;DHT22;8766;51.480;6.872;2023-03-21T06:55:53;11.60;67.90
17296;DHT22;8766;51.480;6.872;2023-03-21T06:58:20;11.60;67.90
17296;DHT22;8766;51.480;6.872;2023-03-21T07:00:47;11.60;67.90
17296;DHT22;8766;51.480;6.872;2023-03-21T07:03:15;11.60;67.90
17296;DHT22;8766;51.480;6.872;2023-03-21T07:05:45;11.70;67.90
17296;DHT22;8766;51.480;6.872;2023-03-21T07:08:12;11.70;67.80
17296;DHT22;8766;51.480;6.872;2023-03-21T07:10:39;11.70;67.80
17296;DHT22;8766;51.480;6.872;2023-03-21T07:13:06;11.70;67.80
17296;DHT22;8766;51.480;6.872;2023-03-21T07:15:33;11.80;67.80
17296;DHT22;8766;51.480;6.872;2023-03-21T07:18:06;11.80;67.70
17296;DHT22;8766;51.480;6.872;2023-03-21T07:20:33;11.80;67.60
17296;DHT22;8766;51.480;6.872;2023-03-21T07:23:03;11.80;67.60
17296;DHT22;8766;51.480;6.872;2023-03-21T07:25:30;11.80;67.60
17296;DHT22;8766;51.480;6.872;2023-03-21T07:27:57;11.90;67.60
17296;DHT22;8766;51.480;6.872;2023-03-21T07:30:25;11.90;67.60
17296;DHT22;8766;51.480;6.872;2023-03-21T07:32:52;11.90;67.50
17296;DHT22;8766;51.480;6.872;2023-03-21T07:35:19;11.90;67.50
17296;DHT22;8766;51.480;6.872;2023-03-21T07:37:46;12.00;67.40
17296;DHT22;8766;51.480;6.872;2023-03-21T07:40:14;12.00;67.30
17296;DHT22;8766;51.480;6.872;2023-03-21T07:42:41;12.00;67.10
17296;DHT22;8766;51.480;6.872;2023-03-21T07:45:09;12.10;67.10
17296;DHT22;8766;51.480;6.872;2023-03-21T07:47:39;12.10;67.00
17296;DHT22;8766;51.480;6.872;2023-03-21T07:50:07;12.10;66.90
17296;DHT22;8766;51.480;6.872;2023-03-21T07:52:34;12.20;67.00
17296;DHT22;8766;51.480;6.872;2023-03-21T07:55:01;12.20;66.90
17296;DHT22;8766;51.480;6.872;2023-03-21T07:57:29;12.30;66.90
17296;DHT22;8766;51.480;6.872;2023-03-21T07:59:56;12.30;66.70
17296;DHT22;8766;51.480;6.872;2023-03-21T08:02:23;12.40;66.70
17296;DHT22;8766;51.480;6.872;2023-03-21T08:04:50;12.40;66.60
17296;DHT22;8766;51.480;6.872;2023-03-21T08:07:17;12.50;66.40
17296;DHT22;8766;51.480;6.872;2023-03-21T08:09:44;12.60;66.30
17296;DHT22;8766;51.480;6.872;2023-03-21T08:12:11;12.60;66.20
17296;DHT22;8766;51.480;6.872;2023-03-21T08:14:39;12.60;66.10
17296;DHT22;8766;51.480;6.872;2023-03-21T08:17:06;12.70;66.10
17296;DHT22;8766;51.480;6.872;2023-03-21T08:19:34;12.70;66.10
17296;DHT22;8766;51.480;6.872;2023-03-21T08:22:02;12.70;66.00
17296;DHT22;8766;51.480;6.872;2023-03-21T08:24:30;12.70;66.10
17296;DHT22;8766;51.480;6.872;2023-03-21T08:26:58;12.70;66.10
17296;DHT22;8766;51.480;6.872;2023-03-21T08:29:25;12.70;66.30
17296;DHT22;8766;51.480;6.872;2023-03-21T08:31:54;12.80;66.10
17296;DHT22;8766;51.480;6.872;2023-03-21T08:34:21;12.80;66.10
17296;DHT22;8766;51.480;6.872;2023-03-21T08:36:48;12.80;66.80
17296;DHT22;8766;51.480;6.872;2023-03-21T08:39:15;12.80;66.20
17296;DHT22;8766;51.480;6.872;2023-03-21T08:41:42;12.70;66.10
17296;DHT22;8766;51.480;6.872;2023-03-21T08:44:09;12.80;66.20
17296;DHT22;8766;51.480;6.872;2023-03-21T08:46:36;12.80;66.20
17296;DHT22;8766;51.480;6.872;2023-03-21T08:49:05;12.80;66.20
17296;DHT22;8766;51.480;6.872;2023-03-21T08:51:32;12.80;66.30
17296;DHT22;8766;51.480;6.872;2023-03-21T08:53:59;12.70;66.30
17296;DHT22;8766;51.480;6.872;2023-03-21T08:56:26;12.70;66.30
17296;DHT22;8766;51.480;6.872;2023-03-21T08:58:53;12.80;66.30
17296;DHT22;8766;51.480;6.872;2023-03-21T09:01:20;12.90;66.20
17296;DHT22;8766;51.480;6.872;2023-03-21T09:03:47;12.90;66.00
17296;DHT22;8766;51.480;6.872;2023-03-21T09:06:15;13.00;66.00
17296;DHT22;8766;51.480;6.872;2023-03-21T09:08:43;13.00;65.90
17296;DHT22;8766;51.480;6.872;2023-03-21T09:11:10;13.00;65.80
17296;DHT22;8766;51.480;6.872;2023-03-21T09:13:37;13.00;65.90
17296;DHT22;8766;51.480;6.872;2023-03-21T09:16:05;13.00;65.90
17296;DHT22;8766;51.480;6.872;2023-03-21T09:18:32;13.00;66.00
17296;DHT22;8766;51.480;6.872;2023-03-21T09:21:12;13.00;66.20
17296;DHT22;8766;51.480;6.872;2023-03-21T09:23:41;12.90;66.20
17296;DHT22;8766;51.480;6.872;2023-03-21T09:26:09;12.90;66.40
17296;DHT22;8766;51.480;6.872;2023-03-21T09:28:37;12.90;66.50
17296;DHT22;8766;51.480;6.872;2023-03-21T09:31:05;12.80;66.50
17296;DHT22;8766;51.480;6.872;2023-03-21T09:33:33;12.90;66.60
17296;DHT22;8766;51.480;6.872;2023-03-21T09:36:00;12.90;66.50
17296;DHT22;8766;51.480;6.872;2023-03-21T09:38:28;12.90;66.40
17296;DHT22;8766;51.480;6.872;2023-03-21T09:41:15;13.00;66.40
17296;DHT22;8766;51.480;6.872;2023-03-21T09:43:57;13.00;66.30
17296;DHT22;8766;51.480;6.872;2023-03-21T09:46:33;13.00;66.20
17296;DHT22;8766;51.480;6.872;2023-03-21T09:49:04;13.10;66.20
17296;DHT22;8766;51.480;6.872;2023-03-21T09:51:34;13.10;66.20
17296;DHT22;8766;51.480;6.872;2023-03-21T09:54:06;13.10;66.10
17296;DHT22;8766;51.480;6.872;2023-03-21T09:56:37;13.20;66.00
17296;DHT22;8766;51.480;6.872;2023-03-21T09:59:07;13.30;65.90
17296;DHT22;8766;51.480;6.872;2023-03-21T10:01:37;13.40;65.70
17296;DHT22;8766;51.480;6.872;2023-03-21T10:04:12;13.50;65.60
17296;DHT22;8766;51.480;6.872;2023-03-21T10:06:40;13.50;65.50
17296;DHT22;8766;51.480;6.872;2023-03-21T10:09:14;13.40;65.50
17296;DHT22;8766;51.480;6.872;2023-03-21T10:11:44;13.40;65.80
17296;DHT22;8766;51.480;6.872;2023-03-21T10:14:18;13.40;65.80
17296;DHT22;8766;51.480;6.872;2023-03-21T10:16:47;13.50;65.70
17296;DHT22;8766;51.480;6.872;2023-03-21T10:19:16;13.50;66.30
17296;DHT22;8766;51.480;6.872;2023-03-21T10:21:46;13.60;65.50
17296;DHT22;8766;51.480;6.872;2023-03-21T10:24:16;13.70;65.40
17296;DHT22;8766;51.480;6.872;2023-03-21T10:26:46;13.70;65.20
17296;DHT22;8766;51.480;6.872;2023-03-21T10:29:15;13.80;65.20
17296;DHT22;8766;51.480;6.872;2023-03-21T10:31:44;13.70;65.10
17296;DHT22;8766;51.480;6.872;2023-03-21T10:34:16;13.70;65.30
17296;DHT22;8766;51.480;6.872;2023-03-21T10:36:44;13.60;65.50
17296;DHT22;8766;51.480;6.872;2023-03-21T10:39:20;13.50;65.70
17296;DHT22;8766;51.480;6.872;2023-03-21T10:41:52;13.50;66.00
17296;DHT22;8766;51.480;6.872;2023-03-21T10:44:20;13.40;66.20
17296;DHT22;8766;51.480;6.872;2023-03-21T10:46:51;13.30;66.30
17296;DHT22;8766;51.480;6.872;2023-03-21T10:49:18;13.30;66.50
17296;DHT22;8766;51.480;6.872;2023-03-21T10:51:49;13.30;66.60
17296;DHT22;8766;51.480;6.872;2023-03-21T10:54:19;13.30;66.50
17296;DHT22;8766;51.480;6.872;2023-03-21T10:56:55;13.40;66.50
17296;DHT22;8766;51.480;6.872;2023-03-21T10:59:24;13.40;66.50
17296;DHT22;8766;51.480;6.872;2023-03-21T11:01:54;13.30;66.30
17296;DHT22;8766;51.480;6.872;2023-03-21T11:04:25;13.40;66.40
17296;DHT22;8766;51.480;6.872;2023-03-21T11:06:54;13.40;66.40
17296;DHT22;8766;51.480;6.872;2023-03-21T11:09:24;13.40;66.30
17296;DHT22;8766;51.480;6.872;2023-03-21T11:11:53;13.50;66.30
17296;DHT22;8766;51.480;6.872;2023-03-21T11:14:32;13.50;66.10
17296;DHT22;8766;51.480;6.872;2023-03-21T11:16:59;13.60;66.00
17296;DHT22;8766;51.480;6.872;2023-03-21T11:19:30;13.70;65.80
17296;DHT22;8766;51.480;6.872;2023-03-21T11:21:58;13.70;65.70
17296;DHT22;8766;51.480;6.872;2023-03-21T11:24:31;13.80;65.70
17296;DHT22;8766;51.480;6.872;2023-03-21T11:26:59;13.80;65.60
17296;DHT22;8766;51.480;6.872;2023-03-21T11:29:29;13.80;65.60
17296;DHT22;8766;51.480;6.872;2023-03-21T11:31:58;13.80;65.70
17296;DHT22;8766;51.480;6.872;2023-03-21T11:34:32;13.80;65.80
17296;DHT22;8766;51.480;6.872;2023-03-21T11:37:04;13.80;65.70
17296;DHT22;8766;51.480;6.872;2023-03-21T11:39:34;13.80;65.60
17296;DHT22;8766;51.480;6.872;2023-03-21T11:42:05;13.90;65.60
17296;DHT22;8766;51.480;6.872;2023-03-21T11:44:42;14.00;65.50
17296;DHT22;8766;51.480;6.872;2023-03-21T11:47:10;14.10;65.40
17296;DHT22;8766;51.480;6.872;2023-03-21T11:49:37;14.10;65.10
17296;DHT22;8766;51.480;6.872;2023-03-21T11:52:21;14.20;65.00
17296;DHT22;8766;51.480;6.872;2023-03-21T11:55:07;14.30;64.90
17296;DHT22;8766;51.480;6.872;2023-03-21T11:57:42;14.40;64.60
17296;DHT22;8766;51.480;6.872;2023-03-21T12:00:16;14.60;64.40
17296;DHT22;8766;51.480;6.872;2023-03-21T12:05:53;14.70;64.10
17296;DHT22;8766;51.480;6.872;2023-03-21T12:08:31;14.70;64.00
17296;DHT22;8766;51.480;6.872;2023-03-21T12:11:07;14.80;64.20
17296;DHT22;8766;51.480;6.872;2023-03-21T12:13:49;14.70;64.80
17296;DHT22;8766;51.480;6.872;2023-03-21T12:19:16;14.70;64.30
17296;DHT22;8766;51.480;6.872;2023-03-21T12:21:52;14.60;64.40
17296;DHT22;8766;51.480;6.872;2023-03-21T12:24:23;14.50;64.60
17296;DHT22;8766;51.480;6.872;2023-03-21T12:26:57;14.50;64.90
17296;DHT22;8766;51.480;6.872;2023-03-21T12:29:35;14.40;65.00
17296;DHT22;8766;51.480;6.872;2023-03-21T12:32:17;14.30;65.20
17296;DHT22;8766;51.480;6.872;2023-03-21T12:35:03;14.40;65.50
17296;DHT22;8766;51.480;6.872;2023-03-21T12:37:38;14.20;65.50
17296;DHT22;8766;51.480;6.872;2023-03-21T12:40:12;14.10;65.60
17296;DHT22;8766;51.480;6.872;2023-03-21T12:42:51;14.10;65.80
17296;DHT22;8766;51.480;6.872;2023-03-21T12:45:23;14.00;66.00
17296;DHT22;8766;51.480;6.872;2023-03-21T12:47:57;14.10;66.00
17296;DHT22;8766;51.480;6.872;2023-03-21T12:50:29;14.10;65.90
17296;DHT22;8766;51.480;6.872;2023-03-21T12:52:58;14.10;65.90
17296;DHT22;8766;51.480;6.872;2023-03-21T12:55:30;14.10;65.90
17296;DHT22;8766;51.480;6.872;2023-03-21T12:58:08;14.10;65.90
17296;DHT22;8766;51.480;6.872;2023-03-21T13:00:39;14.10;65.80
17296;DHT22;8766;51.480;6.872;2023-03-21T13:03:14;14.20;65.70
17296;DHT22;8766;51.480;6.872;2023-03-21T13:05:46;14.20;65.60
17296;DHT22;8766;51.480;6.872;2023-03-21T13:08:18;14.20;65.50
17296;DHT22;8766;51.480;6.872;2023-03-21T13:10:47;14.30;65.50
17296;DHT22;8766;51.480;6.872;2023-03-21T13:13:21;14.30;65.40
17296;DHT22;8766;51.480;6.872;2023-03-21T13:16:01;14.30;65.40
17296;DHT22;8766;51.480;6.872;2023-03-21T13:18:47;14.30;65.50
17296;DHT22;8766;51.480;6.872;2023-03-21T13:21:18;14.20;65.60
17296;DHT22;8766;51.480;6.872;2023-03-21T13:24:01;14.20;65.60
17296;DHT22;8766;51.480;6.872;2023-03-21T13:26:38;14.30;65.60
17296;DHT22;8766;51.480;6.872;2023-03-21T13:29:22;14.20;65.50
17296;DHT22;8766;51.480;6.872;2023-03-21T13:31:50;14.30;65.40
17296;DHT22;8766;51.480;6.872;2023-03-21T13:34:22;14.40;65.30
17296;DHT22;8766;51.480;6.872;2023-03-21T13:36:50;14.40;65.30
17296;DHT22;8766;51.480;6.872;2023-03-21T13:39:19;14.40;65.30
17296;DHT22;8766;51.480;6.872;2023-03-21T13:41:47;14.40;65.20
17296;DHT22;8766;51.480;6.872;2023-03-21T13:44:23;14.50;65.30
17296;DHT22;8766;51.480;6.872;2023-03-21T13:46:58;14.50;65.10
17296;DHT22;8766;51.480;6.872;2023-03-21T13:49:30;14.60;65.00
17296;DHT22;8766;51.480;6.872;2023-03-21T13:51:59;14.60;64.90
17296;DHT22;8766;51.480;6.872;2023-03-21T13:54:43;14.60;65.50
17296;DHT22;8766;51.480;6.872;2023-03-21T13:57:21;14.60;64.80
17296;DHT22;8766;51.480;6.872;2023-03-21T13:59:48;14.70;64.90
17296;DHT22;8766;51.480;6.872;2023-03-21T14:02:27;14.70;64.80
17296;DHT22;8766;51.480;6.872;2023-03-21T14:04:59;14.70;64.90
17296;DHT22;8766;51.480;6.872;2023-03-21T14:07:29;14.70;64.90
17296;DHT22;8766;51.480;6.872;2023-03-21T14:09:59;14.70;65.00
17296;DHT22;8766;51.480;6.872;2023-03-21T14:12:30;14.60;64.90
17296;DHT22;8766;51.480;6.872;2023-03-21T14:15:03;14.70;65.00
17296;DHT22;8766;51.480;6.872;2023-03-21T14:17:33;14.60;65.00
17296;DHT22;8766;51.480;6.872;2023-03-21T14:20:05;14.60;65.10
17296;DHT22;8766;51.480;6.872;2023-03-21T14:22:37;14.60;65.00
17296;DHT22;8766;51.480;6.872;2023-03-21T14:25:09;14.70;64.90
17296;DHT22;8766;51.480;6.872;2023-03-21T14:27:36;14.80;64.70
17296;DHT22;8766;51.480;6.872;2023-03-21T14:30:05;14.90;64.60
17296;DHT22;8766;51.480;6.872;2023-03-21T14:32:34;15.00;64.50
17296;DHT22;8766;51.480;6.872;2023-03-21T14:35:03;14.90;64.40
17296;DHT22;8766;51.480;6.872;2023-03-21T14:37:32;14.90;64.40
17296;DHT22;8766;51.480;6.872;2023-03-21T14:40:01;14.90;64.60
17296;DHT22;8766;51.480;6.872;2023-03-21T14:42:34;14.90;64.60
17296;DHT22;8766;51.480;6.872;2023-03-21T14:45:13;14.90;64.60
17296;DHT22;8766;51.480;6.872;2023-03-21T14:47:40;14.90;65.30
17296;DHT22;8766;51.480;6.872;2023-03-21T14:50:11;14.80;64.60
17296;DHT22;8766;51.480;6.872;2023-03-21T14:52:40;14.80;64.80
17296;DHT22;8766;51.480;6.872;2023-03-21T14:55:12;14.80;64.90
17296;DHT22;8766;51.480;6.872;2023-03-21T14:57:41;14.80;64.90
17296;DHT22;8766;51.480;6.872;2023-03-21T15:00:21;14.80;65.00
17296;DHT22;8766;51.480;6.872;2023-03-21T15:02:49;14.80;65.00
17296;DHT22;8766;51.480;6.872;2023-03-21T15:05:22;14.80;64.90
17296;DHT22;8766;51.480;6.872;2023-03-21T15:07:55;14.80;64.90
17296;DHT22;8766;51.480;6.872;2023-03-21T15:10:23;14.80;64.80
17296;DHT22;8766;51.480;6.872;2023-03-21T15:12:52;14.90;64.80
17296;DHT22;8766;51.480;6.872;2023-03-21T15:15:20;15.00;64.60
17296;DHT22;8766;51.480;6.872;2023-03-21T15:17:48;15.10;64.30
17296;DHT22;8766;51.480;6.872;2023-03-21T15:20:21;15.20;64.00
17296;DHT22;8766;51.480;6.872;2023-03-21T15:22:52;15.30;63.80
17296;DHT22;8766;51.480;6.872;2023-03-21T15:25:24;15.40;63.70
17296;DHT22;8766;51.480;6.872;2023-03-21T15:27:53;15.40;63.60
17296;DHT22;8766;51.480;6.872;2023-03-21T15:30:24;15.40;63.60
17296;DHT22;8766;51.480;6.872;2023-03-21T15:32:52;15.40;63.70
17296;DHT22;8766;51.480;6.872;2023-03-21T15:35:24;15.30;63.90
17296;DHT22;8766;51.480;6.872;2023-03-21T15:37:53;15.30;64.00
17296;DHT22;8766;51.480;6.872;2023-03-21T15:40:23;15.40;63.90
17296;DHT22;8766;51.480;6.872;2023-03-21T15:43:05;15.40;63.70
17296;DHT22;8766;51.480;6.872;2023-03-21T15:45:44;15.60;63.60
17296;DHT22;8766;51.480;6.872;2023-03-21T15:48:12;15.60;63.30
17296;DHT22;8766;51.480;6.872;2023-03-21T15:50:45;15.60;63.20
17296;DHT22;8766;51.480;6.872;2023-03-21T15:53:16;15.60;63.30
17296;DHT22;8766;51.480;6.872;2023-03-21T15:55:46;15.50;63.40
17296;DHT22;8766;51.480;6.872;2023-03-21T15:58:18;15.40;63.70
17296;DHT22;8766;51.480;6.872;2023-03-21T16:00:48;15.30;63.90
17296;DHT22;8766;51.480;6.872;2023-03-21T16:03:20;15.20;64.10
17296;DHT22;8766;51.480;6.872;2023-03-21T16:06:14;15.10;64.50
17296;DHT22;8766;51.480;6.872;2023-03-21T16:08:43;14.90;64.90
17296;DHT22;8766;51.480;6.872;2023-03-21T16:11:16;14.80;65.20
17296;DHT22;8766;51.480;6.872;2023-03-21T16:13:44;14.80;65.40
17296;DHT22;8766;51.480;6.872;2023-03-21T16:16:15;14.70;65.40